sensor_id;sensor_type;location;lat;lon;timestamp;P1;durP1;ratioP1;P2;durP2;ratioP2
54037;SDS011;39954;48.844;9.726;2024-01-06T00:00:51;98.63;;;10.55;;
54037;SDS011;39954;48.844;9.726;2024-01-06T00:01:53;60.03;;;6.88;;
54037;SDS011;39954;48.844;9.726;2024-01-06T00:02:58;86.40;;;8.05;;
54037;SDS011;39954;48.844;9.726;2024-01-06T00:04:01;76.00;;;8.25;;
54037;SDS011;39954;48.844;9.726;2024-01-06T00:05:06;60.53;;;6.80;;
54037;SDS011;39954;48.844;9.726;2024-01-06T00:06:11;68.47;;;8.55;;
54037;SDS011;39954;48.844;9.726;2024-01-06T00:07:16;47.83;;;5.43;;
54037;SDS011;39954;48.844;9.726;2024-01-06T00:08:21;76.72;;;6.93;;
54037;SDS011;39954;48.844;9.726;2024-01-06T00:09:23;62.95;;;7.13;;
54037;SDS011;39954;48.844;9.726;2024-01-06T00:10:28;70.47;;;6.70;;
54037;SDS011;39954;48.844;9.726;2024-01-06T00:11:30;69.75;;;7.00;;
54037;SDS011;39954;48.844;9.726;2024-01-06T00:12:34;85.18;;;8.88;;
54037;SDS011;39954;48.844;9.726;2024-01-06T00:13:37;68.20;;;6.75;;
54037;SDS011;39954;48.844;9.726;2024-01-06T00:14:41;71.28;;;7.90;;
54037;SDS011;39954;48.844;9.726;2024-01-06T00:15:46;80.82;;;9.57;;
54037;SDS011;39954;48.844;9.726;2024-01-06T00:16:51;63.67;;;7.00;;
54037;SDS011;39954;48.844;9.726;2024-01-06T00:17:53;72.47;;;7.40;;
54037;SDS011;39954;48.844;9.726;2024-01-06T00:18:58;65.60;;;7.07;;
54037;SDS011;39954;48.844;9.726;2024-01-06T00:20:01;70.57;;;8.95;;
54037;SDS011;39954;48.844;9.726;2024-01-06T00:21:06;71.88;;;8.98;;
54037;SDS011;39954;48.844;9.726;2024-01-06T00:22:09;60.83;;;8.35;;
54037;SDS011;39954;48.844;9.726;2024-01-06T00:23:15;73.15;;;8.98;;
54037;SDS011;39954;48.844;9.726;2024-01-06T00:24:19;60.22;;;6.70;;
54037;SDS011;39954;48.844;9.726;2024-01-06T00:25:24;66.65;;;7.85;;
54037;SDS011;39954;48.844;9.726;2024-01-06T00:26:26;91.15;;;10.20;;
54037;SDS011;39954;48.844;9.726;2024-01-06T00:27:31;57.80;;;8.25;;
54037;SDS011;39954;48.844;9.726;2024-01-06T00:28:33;87.68;;;9.93;;
54037;SDS011;39954;48.844;9.726;2024-01-06T00:29:39;54.28;;;7.30;;
54037;SDS011;39954;48.844;9.726;2024-01-06T00:30:41;77.93;;;8.20;;
54037;SDS011;39954;48.844;9.726;2024-01-06T00:31:46;55.40;;;7.60;;
54037;SDS011;39954;48.844;9.726;2024-01-06T00:32:48;79.95;;;9.48;;
54037;SDS011;39954;48.844;9.726;2024-01-06T00:33:53;71.13;;;8.13;;
54037;SDS011;39954;48.844;9.726;2024-01-06T00:34:55;67.53;;;7.93;;
54037;SDS011;39954;48.844;9.726;2024-01-06T00:35:58;81.93;;;8.93;;
54037;SDS011;39954;48.844;9.726;2024-01-06T00:37:03;81.10;;;9.48;;
54037;SDS011;39954;48.844;9.726;2024-01-06T00:38:05;85.05;;;10.63;;
54037;SDS011;39954;48.844;9.726;2024-01-06T00:39:10;104.78;;;11.35;;
54037;SDS011;39954;48.844;9.726;2024-01-06T00:40:18;101.18;;;10.85;;
54037;SDS011;39954;48.844;9.726;2024-01-06T00:41:23;92.25;;;9.20;;
54037;SDS011;39954;48.844;9.726;2024-01-06T00:42:25;81.47;;;9.35;;
54037;SDS011;39954;48.844;9.726;2024-01-06T00:43:30;90.30;;;8.85;;
54037;SDS011;39954;48.844;9.726;2024-01-06T00:44:33;126.88;;;10.85;;
54037;SDS011;39954;48.844;9.726;2024-01-06T00:45:40;75.53;;;8.70;;
54037;SDS011;39954;48.844;9.726;2024-01-06T00:46:42;89.18;;;8.60;;
54037;SDS011;39954;48.844;9.726;2024-01-06T00:47:44;65.40;;;7.28;;
54037;SDS011;39954;48.844;9.726;2024-01-06T00:48:49;94.95;;;9.35;;
54037;SDS011;39954;48.844;9.726;2024-01-06T00:49:52;79.15;;;8.90;;
54037;SDS011;39954;48.844;9.726;2024-01-06T00:50:57;88.63;;;9.98;;
54037;SDS011;39954;48.844;9.726;2024-01-06T00:51:59;71.55;;;8.18;;
54037;SDS011;39954;48.844;9.726;2024-01-06T00:53:04;104.00;;;11.70;;
54037;SDS011;39954;48.844;9.726;2024-01-06T00:54:06;81.18;;;9.95;;
54037;SDS011;39954;48.844;9.726;2024-01-06T00:55:08;80.35;;;8.77;;
54037;SDS011;39954;48.844;9.726;2024-01-06T00:56:16;85.55;;;10.82;;
54037;SDS011;39954;48.844;9.726;2024-01-06T00:57:18;81.78;;;8.82;;
54037;SDS011;39954;48.844;9.726;2024-01-06T00:58:26;43.35;;;6.20;;
54037;SDS011;39954;48.844;9.726;2024-01-06T00:59:28;77.35;;;12.43;;
54037;SDS011;39954;48.844;9.726;2024-01-06T01:00:32;71.93;;;9.40;;
54037;SDS011;39954;48.844;9.726;2024-01-06T01:01:35;42.33;;;8.35;;
54037;SDS011;39954;48.844;9.726;2024-01-06T01:02:40;67.22;;;8.85;;
54037;SDS011;39954;48.844;9.726;2024-01-06T01:03:42;55.70;;;6.80;;
54037;SDS011;39954;48.844;9.726;2024-01-06T01:04:47;94.32;;;18.02;;
54037;SDS011;39954;48.844;9.726;2024-01-06T01:05:49;88.55;;;12.75;;
54037;SDS011;39954;48.844;9.726;2024-01-06T01:06:52;71.13;;;12.57;;
54037;SDS011;39954;48.844;9.726;2024-01-06T01:07:56;76.63;;;8.02;;
54037;SDS011;39954;48.844;9.726;2024-01-06T01:08:59;67.07;;;8.45;;
54037;SDS011;39954;48.844;9.726;2024-01-06T01:10:04;82.75;;;9.23;;
54037;SDS011;39954;48.844;9.726;2024-01-06T01:11:07;82.72;;;9.68;;
54037;SDS011;39954;48.844;9.726;2024-01-06T01:12:15;82.70;;;8.93;;
54037;SDS011;39954;48.844;9.726;2024-01-06T01:13:17;70.28;;;8.73;;
54037;SDS011;39954;48.844;9.726;2024-01-06T01:14:19;83.47;;;8.32;;
54037;SDS011;39954;48.844;9.726;2024-01-06T01:15:24;67.55;;;6.82;;
54037;SDS011;39954;48.844;9.726;2024-01-06T01:16:26;98.28;;;8.25;;
54037;SDS011;39954;48.844;9.726;2024-01-06T01:17:31;81.35;;;7.00;;
54037;SDS011;39954;48.844;9.726;2024-01-06T01:18:33;67.93;;;6.68;;
54037;SDS011;39954;48.844;9.726;2024-01-06T01:19:38;93.82;;;8.10;;
54037;SDS011;39954;48.844;9.726;2024-01-06T01:20:40;66.22;;;6.40;;
54037;SDS011;39954;48.844;9.726;2024-01-06T01:21:43;84.00;;;8.77;;
54037;SDS011;39954;48.844;9.726;2024-01-06T01:22:48;64.85;;;6.75;;
54037;SDS011;39954;48.844;9.726;2024-01-06T01:23:50;98.15;;;10.30;;
54037;SDS011;39954;48.844;9.726;2024-01-06T01:24:55;78.40;;;8.50;;
54037;SDS011;39954;48.844;9.726;2024-01-06T01:25:57;68.95;;;7.95;;
54037;SDS011;39954;48.844;9.726;2024-01-06T01:27:02;79.50;;;7.20;;
54037;SDS011;39954;48.844;9.726;2024-01-06T01:28:07;69.00;;;7.07;;
54037;SDS011;39954;48.844;9.726;2024-01-06T01:29:09;87.03;;;9.02;;
54037;SDS011;39954;48.844;9.726;2024-01-06T01:30:14;80.13;;;7.95;;
54037;SDS011;39954;48.844;9.726;2024-01-06T01:31:16;94.65;;;8.30;;
54037;SDS011;39954;48.844;9.726;2024-01-06T01:32:21;90.38;;;9.13;;
54037;SDS011;39954;48.844;9.726;2024-01-06T01:33:24;98.13;;;8.43;;
54037;SDS011;39954;48.844;9.726;2024-01-06T01:34:29;84.63;;;7.60;;
54037;SDS011;39954;48.844;9.726;2024-01-06T01:35:32;105.97;;;11.55;;
54037;SDS011;39954;48.844;9.726;2024-01-06T01:36:37;85.22;;;7.65;;
54037;SDS011;39954;48.844;9.726;2024-01-06T01:37:39;85.32;;;7.65;;
54037;SDS011;39954;48.844;9.726;2024-01-06T01:38:44;88.85;;;9.35;;
54037;SDS011;39954;48.844;9.726;2024-01-06T01:39:47;108.80;;;8.75;;
54037;SDS011;39954;48.844;9.726;2024-01-06T01:40:51;64.15;;;7.00;;
54037;SDS011;39954;48.844;9.726;2024-01-06T01:41:53;53.83;;;6.00;;
54037;SDS011;39954;48.844;9.726;2024-01-06T01:42:58;68.32;;;6.90;;
54037;SDS011;39954;48.844;9.726;2024-01-06T01:44:03;65.93;;;7.10;;
54037;SDS011;39954;48.844;9.726;2024-01-06T01:45:08;57.08;;;6.80;;
54037;SDS011;39954;48.844;9.726;2024-01-06T01:46:13;59.78;;;7.35;;
54037;SDS011;39954;48.844;9.726;2024-01-06T01:47:18;55.38;;;7.18;;
54037;SDS011;39954;48.844;9.726;2024-01-06T01:48:23;71.32;;;8.07;;
54037;SDS011;39954;48.844;9.726;2024-01-06T01:49:29;62.72;;;7.22;;
54037;SDS011;39954;48.844;9.726;2024-01-06T01:50:31;66.13;;;6.80;;
54037;SDS011;39954;48.844;9.726;2024-01-06T01:51:36;55.55;;;6.60;;
54037;SDS011;39954;48.844;9.726;2024-01-06T01:52:40;61.45;;;6.70;;
54037;SDS011;39954;48.844;9.726;2024-01-06T01:53:45;76.82;;;7.60;;
54037;SDS011;39954;48.844;9.726;2024-01-06T01:54:48;55.55;;;6.63;;
54037;SDS011;39954;48.844;9.726;2024-01-06T01:55:50;78.28;;;7.65;;
54037;SDS011;39954;48.844;9.726;2024-01-06T01:56:55;67.43;;;7.20;;
54037;SDS011;39954;48.844;9.726;2024-01-06T01:57:58;78.95;;;8.98;;
54037;SDS011;39954;48.844;9.726;2024-01-06T01:59:06;79.60;;;7.70;;
54037;SDS011;39954;48.844;9.726;2024-01-06T02:00:12;87.05;;;9.02;;
54037;SDS011;39954;48.844;9.726;2024-01-06T02:01:17;74.40;;;8.63;;
54037;SDS011;39954;48.844;9.726;2024-01-06T02:02:21;88.93;;;9.50;;
54037;SDS011;39954;48.844;9.726;2024-01-06T02:03:26;71.43;;;7.43;;
54037;SDS011;39954;48.844;9.726;2024-01-06T02:04:32;86.55;;;9.02;;
54037;SDS011;39954;48.844;9.726;2024-01-06T02:05:36;68.65;;;7.65;;
54037;SDS011;39954;48.844;9.726;2024-01-06T02:06:39;55.33;;;7.18;;
54037;SDS011;39954;48.844;9.726;2024-01-06T02:07:43;60.90;;;7.65;;
54037;SDS011;39954;48.844;9.726;2024-01-06T02:08:46;59.92;;;9.00;;
54037;SDS011;39954;48.844;9.726;2024-01-06T02:09:51;83.25;;;8.27;;
54037;SDS011;39954;48.844;9.726;2024-01-06T02:10:54;62.90;;;7.65;;
54037;SDS011;39954;48.844;9.726;2024-01-06T02:11:59;63.35;;;7.82;;
54037;SDS011;39954;48.844;9.726;2024-01-06T02:13:07;54.38;;;7.90;;
54037;SDS011;39954;48.844;9.726;2024-01-06T02:14:16;69.25;;;9.50;;
54037;SDS011;39954;48.844;9.726;2024-01-06T02:15:18;57.65;;;8.85;;
54037;SDS011;39954;48.844;9.726;2024-01-06T02:16:23;51.63;;;8.68;;
54037;SDS011;39954;48.844;9.726;2024-01-06T02:17:25;74.05;;;8.73;;
54037;SDS011;39954;48.844;9.726;2024-01-06T02:18:30;71.22;;;8.65;;
54037;SDS011;39954;48.844;9.726;2024-01-06T02:19:33;70.85;;;8.38;;
54037;SDS011;39954;48.844;9.726;2024-01-06T02:20:35;64.75;;;8.10;;
54037;SDS011;39954;48.844;9.726;2024-01-06T02:21:42;58.53;;;8.18;;
54037;SDS011;39954;48.844;9.726;2024-01-06T02:22:48;56.08;;;8.25;;
54037;SDS011;39954;48.844;9.726;2024-01-06T02:23:50;54.15;;;7.88;;
54037;SDS011;39954;48.844;9.726;2024-01-06T02:24:55;51.92;;;7.40;;
54037;SDS011;39954;48.844;9.726;2024-01-06T02:25:58;65.15;;;8.20;;
54037;SDS011;39954;48.844;9.726;2024-01-06T02:27:03;56.53;;;7.70;;
54037;SDS011;39954;48.844;9.726;2024-01-06T02:28:05;127.93;;;11.75;;
54037;SDS011;39954;48.844;9.726;2024-01-06T02:29:10;57.45;;;8.77;;
54037;SDS011;39954;48.844;9.726;2024-01-06T02:30:12;72.88;;;9.48;;
54037;SDS011;39954;48.844;9.726;2024-01-06T02:31:17;49.95;;;7.32;;
54037;SDS011;39954;48.844;9.726;2024-01-06T02:32:20;71.35;;;8.80;;
54037;SDS011;39954;48.844;9.726;2024-01-06T02:33:25;50.50;;;7.53;;
54037;SDS011;39954;48.844;9.726;2024-01-06T02:34:27;55.75;;;7.72;;
54037;SDS011;39954;48.844;9.726;2024-01-06T02:35:34;62.63;;;8.55;;
54037;SDS011;39954;48.844;9.726;2024-01-06T02:36:36;62.75;;;8.05;;
54037;SDS011;39954;48.844;9.726;2024-01-06T02:37:41;59.55;;;6.82;;
54037;SDS011;39954;48.844;9.726;2024-01-06T02:38:46;55.10;;;7.15;;
54037;SDS011;39954;48.844;9.726;2024-01-06T02:39:52;63.03;;;7.50;;
54037;SDS011;39954;48.844;9.726;2024-01-06T02:40:54;52.10;;;6.40;;
54037;SDS011;39954;48.844;9.726;2024-01-06T02:41:59;45.80;;;7.13;;
54037;SDS011;39954;48.844;9.726;2024-01-06T02:43:01;59.67;;;7.13;;
54037;SDS011;39954;48.844;9.726;2024-01-06T02:44:06;62.05;;;7.55;;
54037;SDS011;39954;48.844;9.726;2024-01-06T02:45:14;82.82;;;8.38;;
54037;SDS011;39954;48.844;9.726;2024-01-06T02:46:19;78.63;;;8.75;;
54037;SDS011;39954;48.844;9.726;2024-01-06T02:47:21;86.05;;;9.50;;
54037;SDS011;39954;48.844;9.726;2024-01-06T02:48:25;81.20;;;9.25;;
54037;SDS011;39954;48.844;9.726;2024-01-06T02:49:28;79.90;;;8.25;;
54037;SDS011;39954;48.844;9.726;2024-01-06T02:50:33;84.07;;;7.57;;
54037;SDS011;39954;48.844;9.726;2024-01-06T02:51:35;86.60;;;9.40;;
54037;SDS011;39954;48.844;9.726;2024-01-06T02:52:40;64.25;;;7.32;;
54037;SDS011;39954;48.844;9.726;2024-01-06T02:53:42;83.82;;;8.85;;
54037;SDS011;39954;48.844;9.726;2024-01-06T02:54:50;75.40;;;7.63;;
54037;SDS011;39954;48.844;9.726;2024-01-06T02:55:52;93.20;;;10.38;;
54037;SDS011;39954;48.844;9.726;2024-01-06T02:56:57;88.50;;;8.75;;
54037;SDS011;39954;48.844;9.726;2024-01-06T02:57:59;67.38;;;7.68;;
54037;SDS011;39954;48.844;9.726;2024-01-06T02:59:04;80.82;;;8.05;;
54037;SDS011;39954;48.844;9.726;2024-01-06T03:00:07;64.80;;;7.22;;
54037;SDS011;39954;48.844;9.726;2024-01-06T03:01:14;71.15;;;7.82;;
54037;SDS011;39954;48.844;9.726;2024-01-06T03:02:16;87.50;;;10.40;;
54037;SDS011;39954;48.844;9.726;2024-01-06T03:03:21;66.07;;;7.22;;
54037;SDS011;39954;48.844;9.726;2024-01-06T03:04:24;73.03;;;9.07;;
54037;SDS011;39954;48.844;9.726;2024-01-06T03:05:29;68.95;;;7.97;;
54037;SDS011;39954;48.844;9.726;2024-01-06T03:06:31;58.47;;;7.32;;
54037;SDS011;39954;48.844;9.726;2024-01-06T03:07:37;69.45;;;7.95;;
54037;SDS011;39954;48.844;9.726;2024-01-06T03:08:39;88.95;;;9.38;;
54037;SDS011;39954;48.844;9.726;2024-01-06T03:09:44;95.07;;;8.98;;
54037;SDS011;39954;48.844;9.726;2024-01-06T03:10:49;72.95;;;8.25;;
54037;SDS011;39954;48.844;9.726;2024-01-06T03:11:54;101.43;;;9.43;;
54037;SDS011;39954;48.844;9.726;2024-01-06T03:12:56;97.88;;;9.77;;
54037;SDS011;39954;48.844;9.726;2024-01-06T03:14:01;79.35;;;8.00;;
54037;SDS011;39954;48.844;9.726;2024-01-06T03:15:04;81.60;;;7.88;;
54037;SDS011;39954;48.844;9.726;2024-01-06T03:16:11;89.00;;;9.95;;
54037;SDS011;39954;48.844;9.726;2024-01-06T03:17:13;120.30;;;40.78;;
54037;SDS011;39954;48.844;9.726;2024-01-06T03:18:19;464.90;;;396.42;;
54037;SDS011;39954;48.844;9.726;2024-01-06T03:19:22;533.05;;;440.88;;
54037;SDS011;39954;48.844;9.726;2024-01-06T03:20:29;511.65;;;441.08;;
54037;SDS011;39954;48.844;9.726;2024-01-06T03:21:31;577.85;;;452.42;;
54037;SDS011;39954;48.844;9.726;2024-01-06T03:22:33;495.38;;;421.90;;
54037;SDS011;39954;48.844;9.726;2024-01-06T03:23:39;483.63;;;427.15;;
54037;SDS011;39954;48.844;9.726;2024-01-06T03:24:41;497.48;;;435.98;;
54037;SDS011;39954;48.844;9.726;2024-01-06T03:25:49;505.98;;;438.80;;
54037;SDS011;39954;48.844;9.726;2024-01-06T03:26:51;527.25;;;444.00;;
54037;SDS011;39954;48.844;9.726;2024-01-06T03:27:56;523.55;;;435.40;;
54037;SDS011;39954;48.844;9.726;2024-01-06T03:28:59;543.58;;;446.23;;
54037;SDS011;39954;48.844;9.726;2024-01-06T03:30:05;549.55;;;447.80;;
54037;SDS011;39954;48.844;9.726;2024-01-06T03:31:08;556.38;;;442.55;;
54037;SDS011;39954;48.844;9.726;2024-01-06T03:32:13;568.80;;;446.92;;
54037;SDS011;39954;48.844;9.726;2024-01-06T03:33:15;596.50;;;427.83;;
54037;SDS011;39954;48.844;9.726;2024-01-06T03:34:20;586.67;;;446.38;;
54037;SDS011;39954;48.844;9.726;2024-01-06T03:35:23;506.38;;;424.85;;
54037;SDS011;39954;48.844;9.726;2024-01-06T03:36:27;516.38;;;432.15;;
54037;SDS011;39954;48.844;9.726;2024-01-06T03:37:30;497.60;;;433.88;;
54037;SDS011;39954;48.844;9.726;2024-01-06T03:38:33;501.77;;;442.73;;
54037;SDS011;39954;48.844;9.726;2024-01-06T03:39:38;487.42;;;411.30;;
54037;SDS011;39954;48.844;9.726;2024-01-06T03:40:40;475.10;;;419.08;;
54037;SDS011;39954;48.844;9.726;2024-01-06T03:41:48;475.10;;;405.60;;
54037;SDS011;39954;48.844;9.726;2024-01-06T03:42:50;450.60;;;394.95;;
54037;SDS011;39954;48.844;9.726;2024-01-06T03:43:55;462.80;;;413.17;;
54037;SDS011;39954;48.844;9.726;2024-01-06T03:44:58;461.23;;;411.13;;
54037;SDS011;39954;48.844;9.726;2024-01-06T03:46:00;469.23;;;418.58;;
54037;SDS011;39954;48.844;9.726;2024-01-06T03:47:05;438.08;;;390.85;;
54037;SDS011;39954;48.844;9.726;2024-01-06T03:48:07;442.27;;;394.17;;
54037;SDS011;39954;48.844;9.726;2024-01-06T03:49:10;438.58;;;385.52;;
54037;SDS011;39954;48.844;9.726;2024-01-06T03:50:15;451.95;;;402.65;;
54037;SDS011;39954;48.844;9.726;2024-01-06T03:51:17;445.83;;;395.83;;
54037;SDS011;39954;48.844;9.726;2024-01-06T03:52:23;456.55;;;406.98;;
54037;SDS011;39954;48.844;9.726;2024-01-06T03:53:26;457.60;;;407.35;;
54037;SDS011;39954;48.844;9.726;2024-01-06T03:54:30;473.52;;;419.48;;
54037;SDS011;39954;48.844;9.726;2024-01-06T03:55:33;435.95;;;387.65;;
54037;SDS011;39954;48.844;9.726;2024-01-06T03:56:38;432.33;;;386.77;;
54037;SDS011;39954;48.844;9.726;2024-01-06T03:57:42;422.63;;;378.55;;
54037;SDS011;39954;48.844;9.726;2024-01-06T03:58:47;410.60;;;367.02;;
54037;SDS011;39954;48.844;9.726;2024-01-06T03:59:49;397.52;;;357.33;;
54037;SDS011;39954;48.844;9.726;2024-01-06T04:00:54;393.13;;;351.80;;
54037;SDS011;39954;48.844;9.726;2024-01-06T04:01:57;398.08;;;354.98;;
54037;SDS011;39954;48.844;9.726;2024-01-06T04:03:01;390.60;;;349.95;;
54037;SDS011;39954;48.844;9.726;2024-01-06T04:04:04;398.20;;;358.05;;
54037;SDS011;39954;48.844;9.726;2024-01-06T04:05:09;385.08;;;345.60;;
54037;SDS011;39954;48.844;9.726;2024-01-06T04:06:11;349.70;;;314.73;;
54037;SDS011;39954;48.844;9.726;2024-01-06T04:07:16;342.83;;;308.40;;
54037;SDS011;39954;48.844;9.726;2024-01-06T04:08:19;351.92;;;317.92;;
54037;SDS011;39954;48.844;9.726;2024-01-06T04:09:23;368.38;;;332.67;;
54037;SDS011;39954;48.844;9.726;2024-01-06T04:10:26;375.23;;;335.63;;
54037;SDS011;39954;48.844;9.726;2024-01-06T04:11:31;345.65;;;311.13;;
54037;SDS011;39954;48.844;9.726;2024-01-06T04:12:33;353.90;;;318.25;;
54037;SDS011;39954;48.844;9.726;2024-01-06T04:13:40;359.10;;;321.85;;
54037;SDS011;39954;48.844;9.726;2024-01-06T04:14:42;377.15;;;336.98;;
54037;SDS011;39954;48.844;9.726;2024-01-06T04:15:47;381.90;;;343.40;;
54037;SDS011;39954;48.844;9.726;2024-01-06T04:16:49;377.02;;;337.27;;
54037;SDS011;39954;48.844;9.726;2024-01-06T04:17:54;377.83;;;339.45;;
54037;SDS011;39954;48.844;9.726;2024-01-06T04:18:57;372.88;;;333.95;;
54037;SDS011;39954;48.844;9.726;2024-01-06T04:20:02;377.70;;;338.50;;
54037;SDS011;39954;48.844;9.726;2024-01-06T04:21:05;353.17;;;317.05;;
54037;SDS011;39954;48.844;9.726;2024-01-06T04:22:10;359.17;;;323.67;;
54037;SDS011;39954;48.844;9.726;2024-01-06T04:23:12;358.73;;;323.05;;
54037;SDS011;39954;48.844;9.726;2024-01-06T04:24:17;370.13;;;331.80;;
54037;SDS011;39954;48.844;9.726;2024-01-06T04:25:20;360.88;;;323.83;;
54037;SDS011;39954;48.844;9.726;2024-01-06T04:26:25;352.55;;;315.45;;
54037;SDS011;39954;48.844;9.726;2024-01-06T04:27:27;320.90;;;288.02;;
54037;SDS011;39954;48.844;9.726;2024-01-06T04:28:32;301.95;;;270.90;;
54037;SDS011;39954;48.844;9.726;2024-01-06T04:29:37;289.52;;;251.13;;
54037;SDS011;39954;48.844;9.726;2024-01-06T04:30:42;267.88;;;236.38;;
54037;SDS011;39954;48.844;9.726;2024-01-06T04:31:44;264.30;;;237.00;;
54037;SDS011;39954;48.844;9.726;2024-01-06T04:32:49;257.67;;;230.45;;
54037;SDS011;39954;48.844;9.726;2024-01-06T04:33:52;279.77;;;237.57;;
54037;SDS011;39954;48.844;9.726;2024-01-06T04:34:56;248.73;;;195.52;;
54037;SDS011;39954;48.844;9.726;2024-01-06T04:35:59;239.70;;;187.10;;
54037;SDS011;39954;48.844;9.726;2024-01-06T04:37:04;231.93;;;190.00;;
54037;SDS011;39954;48.844;9.726;2024-01-06T04:38:08;223.18;;;186.55;;
54037;SDS011;39954;48.844;9.726;2024-01-06T04:39:11;208.32;;;183.70;;
54037;SDS011;39954;48.844;9.726;2024-01-06T04:40:16;213.20;;;189.73;;
54037;SDS011;39954;48.844;9.726;2024-01-06T04:41:19;225.15;;;192.63;;
54037;SDS011;39954;48.844;9.726;2024-01-06T04:42:21;225.32;;;193.65;;
54037;SDS011;39954;48.844;9.726;2024-01-06T04:43:26;234.85;;;210.23;;
54037;SDS011;39954;48.844;9.726;2024-01-06T04:44:28;235.15;;;206.05;;
54037;SDS011;39954;48.844;9.726;2024-01-06T04:45:33;258.45;;;198.25;;
54037;SDS011;39954;48.844;9.726;2024-01-06T04:46:39;233.63;;;184.13;;
54037;SDS011;39954;48.844;9.726;2024-01-06T04:47:41;216.35;;;183.93;;
54037;SDS011;39954;48.844;9.726;2024-01-06T04:48:46;220.07;;;197.77;;
54037;SDS011;39954;48.844;9.726;2024-01-06T04:49:49;209.40;;;190.27;;
54037;SDS011;39954;48.844;9.726;2024-01-06T04:50:51;236.10;;;199.65;;
54037;SDS011;39954;48.844;9.726;2024-01-06T04:51:56;218.55;;;201.07;;
54037;SDS011;39954;48.844;9.726;2024-01-06T04:52:58;217.98;;;195.35;;
54037;SDS011;39954;48.844;9.726;2024-01-06T04:54:01;259.80;;;205.23;;
54037;SDS011;39954;48.844;9.726;2024-01-06T04:55:06;233.30;;;211.55;;
54037;SDS011;39954;48.844;9.726;2024-01-06T04:56:08;219.57;;;201.45;;
54037;SDS011;39954;48.844;9.726;2024-01-06T04:57:13;219.65;;;198.50;;
54037;SDS011;39954;48.844;9.726;2024-01-06T04:58:16;219.57;;;202.10;;
54037;SDS011;39954;48.844;9.726;2024-01-06T04:59:20;214.88;;;194.45;;
54037;SDS011;39954;48.844;9.726;2024-01-06T05:00:23;213.25;;;193.02;;
54037;SDS011;39954;48.844;9.726;2024-01-06T05:01:31;198.60;;;177.55;;
54037;SDS011;39954;48.844;9.726;2024-01-06T05:02:33;149.77;;;133.75;;
54037;SDS011;39954;48.844;9.726;2024-01-06T05:03:38;139.85;;;125.65;;
54037;SDS011;39954;48.844;9.726;2024-01-06T05:04:41;136.68;;;119.10;;
54037;SDS011;39954;48.844;9.726;2024-01-06T05:05:46;150.45;;;119.78;;
54037;SDS011;39954;48.844;9.726;2024-01-06T05:06:48;138.80;;;112.50;;
54037;SDS011;39954;48.844;9.726;2024-01-06T05:07:51;121.47;;;109.68;;
54037;SDS011;39954;48.844;9.726;2024-01-06T05:08:56;154.20;;;111.95;;
54037;SDS011;39954;48.844;9.726;2024-01-06T05:09:58;120.03;;;106.40;;
54037;SDS011;39954;48.844;9.726;2024-01-06T05:11:04;126.35;;;102.50;;
54037;SDS011;39954;48.844;9.726;2024-01-06T05:12:08;114.85;;;100.53;;
54037;SDS011;39954;48.844;9.726;2024-01-06T05:13:13;126.18;;;104.47;;
54037;SDS011;39954;48.844;9.726;2024-01-06T05:14:15;115.00;;;102.88;;
54037;SDS011;39954;48.844;9.726;2024-01-06T05:15:20;123.20;;;110.13;;
54037;SDS011;39954;48.844;9.726;2024-01-06T05:16:22;139.07;;;122.07;;
54037;SDS011;39954;48.844;9.726;2024-01-06T05:17:29;123.88;;;82.82;;
54037;SDS011;39954;48.844;9.726;2024-01-06T05:18:32;119.68;;;70.15;;
54037;SDS011;39954;48.844;9.726;2024-01-06T05:19:37;101.53;;;67.30;;
54037;SDS011;39954;48.844;9.726;2024-01-06T05:20:40;106.47;;;82.25;;
54037;SDS011;39954;48.844;9.726;2024-01-06T05:21:45;122.68;;;89.45;;
54037;SDS011;39954;48.844;9.726;2024-01-06T05:22:47;119.18;;;93.78;;
54037;SDS011;39954;48.844;9.726;2024-01-06T05:23:52;116.57;;;99.38;;
54037;SDS011;39954;48.844;9.726;2024-01-06T05:24:54;127.55;;;104.25;;
54037;SDS011;39954;48.844;9.726;2024-01-06T05:25:59;137.88;;;108.05;;
54037;SDS011;39954;48.844;9.726;2024-01-06T05:27:01;144.50;;;115.40;;
54037;SDS011;39954;48.844;9.726;2024-01-06T05:28:04;144.18;;;115.05;;
54037;SDS011;39954;48.844;9.726;2024-01-06T05:29:09;135.75;;;116.30;;
54037;SDS011;39954;48.844;9.726;2024-01-06T05:30:12;150.35;;;119.68;;
54037;SDS011;39954;48.844;9.726;2024-01-06T05:31:17;132.70;;;112.75;;
54037;SDS011;39954;48.844;9.726;2024-01-06T05:32:19;146.18;;;116.70;;
54037;SDS011;39954;48.844;9.726;2024-01-06T05:33:27;136.13;;;121.45;;
54037;SDS011;39954;48.844;9.726;2024-01-06T05:34:29;149.75;;;121.95;;
54037;SDS011;39954;48.844;9.726;2024-01-06T05:35:34;150.43;;;120.28;;
54037;SDS011;39954;48.844;9.726;2024-01-06T05:36:36;158.00;;;140.98;;
54037;SDS011;39954;48.844;9.726;2024-01-06T05:37:41;174.95;;;156.18;;
54037;SDS011;39954;48.844;9.726;2024-01-06T05:38:44;195.50;;;174.40;;
54037;SDS011;39954;48.844;9.726;2024-01-06T05:39:53;185.90;;;166.82;;
54037;SDS011;39954;48.844;9.726;2024-01-06T05:40:56;183.93;;;163.57;;
54037;SDS011;39954;48.844;9.726;2024-01-06T05:42:01;176.75;;;155.80;;
54037;SDS011;39954;48.844;9.726;2024-01-06T05:43:03;173.98;;;157.25;;
54037;SDS011;39954;48.844;9.726;2024-01-06T05:44:09;196.52;;;177.02;;
54037;SDS011;39954;48.844;9.726;2024-01-06T05:45:11;206.70;;;187.07;;
54037;SDS011;39954;48.844;9.726;2024-01-06T05:46:20;194.68;;;173.60;;
54037;SDS011;39954;48.844;9.726;2024-01-06T05:47:23;183.73;;;162.57;;
54037;SDS011;39954;48.844;9.726;2024-01-06T05:48:31;152.80;;;123.38;;
54037;SDS011;39954;48.844;9.726;2024-01-06T05:49:34;211.48;;;136.48;;
54037;SDS011;39954;48.844;9.726;2024-01-06T05:50:37;213.02;;;137.52;;
54037;SDS011;39954;48.844;9.726;2024-01-06T05:51:44;183.73;;;110.30;;
54037;SDS011;39954;48.844;9.726;2024-01-06T05:52:46;208.55;;;114.28;;
54037;SDS011;39954;48.844;9.726;2024-01-06T05:53:51;163.40;;;114.10;;
54037;SDS011;39954;48.844;9.726;2024-01-06T05:54:54;181.07;;;117.97;;
54037;SDS011;39954;48.844;9.726;2024-01-06T05:56:00;187.77;;;120.63;;
54037;SDS011;39954;48.844;9.726;2024-01-06T05:57:02;181.35;;;117.68;;
54037;SDS011;39954;48.844;9.726;2024-01-06T05:58:07;196.15;;;129.25;;
54037;SDS011;39954;48.844;9.726;2024-01-06T05:59:09;212.23;;;127.15;;
54037;SDS011;39954;48.844;9.726;2024-01-06T06:00:15;189.13;;;136.55;;
54037;SDS011;39954;48.844;9.726;2024-01-06T06:01:18;198.55;;;148.10;;
54037;SDS011;39954;48.844;9.726;2024-01-06T06:02:23;172.63;;;142.75;;
54037;SDS011;39954;48.844;9.726;2024-01-06T06:03:31;163.35;;;146.35;;
54037;SDS011;39954;48.844;9.726;2024-01-06T06:04:33;182.73;;;160.68;;
54037;SDS011;39954;48.844;9.726;2024-01-06T06:05:38;168.55;;;150.27;;
54037;SDS011;39954;48.844;9.726;2024-01-06T06:06:41;182.25;;;163.90;;
54037;SDS011;39954;48.844;9.726;2024-01-06T06:07:46;168.02;;;149.80;;
54037;SDS011;39954;48.844;9.726;2024-01-06T06:08:48;170.50;;;147.55;;
54037;SDS011;39954;48.844;9.726;2024-01-06T06:09:53;162.70;;;144.77;;
54037;SDS011;39954;48.844;9.726;2024-01-06T06:10:55;170.93;;;148.27;;
54037;SDS011;39954;48.844;9.726;2024-01-06T06:12:07;180.63;;;144.60;;